Time;durP1;ratioP1;P1;durP2;ratioP2;P2;SDS_P1;SDS_P2;PMS_P1;PMS_P2;Temp;Humidity;BMP_temperature;BMP_pressure;BME280_temperature;BME280_humidity;BME280_pressure;Samples;Min_cycle;Max_cycle;Signal;HPM_P1;HPM_P2
2023/02/03 00:01:03;;;;;;;3.05;1.10;;;;;;;;;;4991988;28;20026;-77
2023/02/03 00:03:29;;;;;;;1.90;0.85;;;;;;;;;;4991254;28;20030;-77
2023/02/03 00:05:55;;;;;;;11.77;2.22;;;6.50;93.40;;;;;;5006170;28;20113;-78
2023/02/03 00:08:22;;;;;;;1.67;1.15;;;6.40;82.90;;;;;;4990842;28;20555;-78
2023/02/03 00:10:48;;;;;;;1.15;1.10;;;;;;;;;;4991656;28;20033;-78
2023/02/03 00:13:14;;;;;;;6.90;1.17;;;;;;;;;;4991068;28;20034;-79
2023/02/03 00:15:40;;;;;;;2.17;1.13;;;;;;;;;;4991249;28;20054;-78
2023/02/03 00:18:06;;;;;;;1.67;1.30;;;;;;;;;;4991207;28;20348;-78
2023/02/03 00:20:32;;;;;;;3.03;1.60;;;;;;;;;;4989990;28;20249;-78
2023/02/03 00:23:09;;;;;;;1.17;1.00;;;6.40;78.00;;;;;;4990503;28;20507;-78
2023/02/03 00:25:36;;;;;;;6.93;1.85;;;6.10;79.10;;;;;;4991131;28;20033;-78
2023/02/03 00:28:02;;;;;;;3.50;1.05;;;6.30;84.80;;;;;;4991161;28;20049;-79
2023/02/03 00:30:29;;;;;;;6.85;2.97;;;;;;;;;;4990950;28;20023;-78
2023/02/03 00:32:55;;;;;;;5.25;2.40;;;;;;;;;;4990722;28;20036;-78
2023/02/03 00:35:21;;;;;;;3.78;2.13;;;;;;;;;;4991032;28;20034;-78
2023/02/03 00:37:56;;;;;;;3.70;2.00;;;6.30;77.70;;;;;;4990360;28;20093;-78
2023/02/03 00:40:24;;;;;;;5.32;1.75;;;6.30;93.30;;;;;;4990784;28;20074;-78
2023/02/03 00:42:50;;;;;;;12.20;2.15;;;;;;;;;;4990438;28;20529;-78
2023/02/03 00:45:16;;;;;;;4.57;2.35;;;;;;;;;;4990903;28;20031;-78
2023/02/03 00:47:42;;;;;;;5.00;2.22;;;;;;;;;;4990294;28;20034;-78
2023/02/03 00:50:09;;;;;;;6.80;1.92;;;6.30;77.50;;;;;;4990780;28;20037;-78
2023/02/03 00:52:35;;;;;;;11.45;3.40;;;;;;;;;;4989899;28;20105;-78
2023/02/03 00:55:02;;;;;;;6.38;3.53;;;6.30;77.70;;;;;;4990393;28;20034;-78
2023/02/03 00:57:28;;;;;;;10.35;1.85;;;;;;;;;;4990479;28;20030;-78
2023/02/03 00:59:54;;;;;;;1.95;0.77;;;6.20;92.70;;;;;;4990315;28;20026;-78
2023/02/03 01:02:20;;;;;;;5.45;1.50;;;6.30;92.80;;;;;;4990528;28;20104;-78
2023/02/03 01:04:46;;;;;;;4.72;1.90;;;;;;;;;;4990799;28;20619;-78
2023/02/03 01:07:12;;;;;;;4.30;1.92;;;;;;;;;;4989907;28;20424;-78
2023/02/03 01:09:38;;;;;;;18.67;4.35;;;6.40;92.90;;;;;;4990597;28;20515;-78
2023/02/03 01:12:04;;;;;;;16.83;5.13;;;5.60;77.00;;;;;;4990373;28;20022;-78
2023/02/03 01:14:30;;;;;;;29.95;8.10;;;6.20;92.90;;;;;;4990363;28;20026;-78
2023/02/03 01:16:56;;;;;;;16.75;5.03;;;6.30;85.60;;;;;;4989320;28;20047;-78
2023/02/03 01:19:22;;;;;;;16.50;6.78;;;;;;;;;;4990462;28;20413;-78
2023/02/03 01:21:48;;;;;;;27.20;7.10;;;;;;;;;;4988829;28;20056;-78
2023/02/03 01:24:14;;;;;;;18.10;5.30;;;;;;;;;;4990066;28;20114;-79
2023/02/03 01:26:41;;;;;;;6.55;3.63;;;;;;;;;;4989923;28;20030;-78
2023/02/03 01:29:07;;;;;;;4.00;1.83;;;;;;;;;;4989911;28;20030;-79
2023/02/03 01:31:35;;;;;;;5.00;1.92;;;;;;;;;;4988790;28;20110;-78
2023/02/03 01:34:02;;;;;;;9.38;2.38;;;;;;;;;;4989891;28;20399;-78
2023/02/03 01:36:29;;;;;;;5.97;2.38;;;7.20;79.70;;;;;;4989285;28;20112;-77
2023/02/03 01:38:55;;;;;;;8.98;2.17;;;;;;;;;;4989815;28;20030;-78
2023/02/03 01:41:25;;;;;;;4.82;1.75;;;6.20;77.80;;;;;;4989828;28;20040;-78
2023/02/03 01:43:53;;;;;;;8.48;2.55;;;6.20;77.70;;;;;;4989720;28;20026;-78
2023/02/03 01:46:40;;;;;;;4.07;2.00;;;6.50;92.40;;;;;;4988984;28;20061;-78
2023/02/03 01:49:23;;;;;;;9.88;1.70;;;6.30;77.90;;;;;;4989719;28;20018;-79
2023/02/03 01:51:52;;;;;;;3.03;1.55;;;6.00;93.00;;;;;;4989092;28;20033;-78
2023/02/03 01:54:33;;;;;;;2.42;0.90;;;6.10;91.80;;;;;;4989101;28;20045;-78
2023/02/03 01:57:09;;;;;;;8.60;1.40;;;6.20;77.70;;;;;;4989466;28;20038;-78
2023/02/03 01:59:35;;;;;;;2.50;1.35;;;;;;;;;;4989226;28;20038;-78
2023/02/03 02:02:03;;;;;;;3.67;1.50;;;6.60;79.00;;;;;;4989455;28;20041;-78
2023/02/03 02:04:35;;;;;;;2.05;1.13;;;6.10;90.00;;;;;;4989103;28;20105;-78
2023/02/03 02:07:01;;;;;;;1.95;1.20;;;;;;;;;;4989373;28;20026;-78
2023/02/03 02:09:27;;;;;;;2.50;1.40;;;;;;;;;;4989290;28;20022;-78
2023/02/03 02:11:53;;;;;;;4.70;1.58;;;;;;;;;;4988996;28;20037;-78
2023/02/03 02:14:19;;;;;;;2.92;1.38;;;;;;;;;;4989292;28;20395;-78
2023/02/03 02:16:51;;;;;;;4.75;1.27;;;;;;;;;;4989140;28;20034;-78
2023/02/03 02:19:44;;;;;;;0.70;0.70;;;6.30;77.50;;;;;;4989405;28;20085;-78
2023/02/03 02:22:17;;;;;;;1.67;1.23;;;6.30;77.50;;;;;;4976540;28;20042;-78
2023/02/03 02:25:01;;;;;;;1.20;1.10;;;6.30;77.50;;;;;;4989185;28;20109;-78
2023/02/03 02:27:57;;;;;;;9.40;1.10;;;6.30;77.40;;;;;;5004036;28;20034;-78
2023/02/03 02:30:50;;;;;;;0.93;0.93;;;6.20;77.50;;;;;;4989407;28;20076;-78
2023/02/03 02:33:42;;;;;;;4.40;1.40;;;6.20;77.70;;;;;;4989107;28;20030;-78
2023/02/03 02:36:35;;;;;;;4.60;1.17;;;6.20;78.10;;;;;;4988955;28;20538;-79
2023/02/03 02:39:09;;;;;;;2.22;1.35;;;6.20;78.50;;;;;;4988671;28;20109;-78
2023/02/03 02:41:48;;;;;;;6.28;1.77;;;6.00;88.50;;;;;;4989317;28;20026;-78
2023/02/03 02:44:25;;;;;;;14.27;3.30;;;6.10;93.20;;;;;;4990585;28;20026;-78
2023/02/03 02:47:00;;;;;;;2.55;1.15;;;6.10;78.40;;;;;;4992623;28;20113;-78
2023/02/03 02:49:29;;;;;;;9.73;2.65;;;6.10;78.60;;;;;;4992661;28;20041;-78
2023/02/03 02:51:58;;;;;;;13.82;2.75;;;6.00;78.80;;;;;;4992773;28;20019;-78
2023/02/03 02:54:26;;;;;;;8.20;2.97;;;6.10;78.90;;;;;;4992522;28;20057;-78
2023/02/03 02:56:55;;;;;;;5.57;2.28;;;6.00;79.50;;;;;;4992740;28;20558;-78
2023/02/03 02:59:21;;;;;;;7.53;1.90;;;;;;;;;;4994375;28;20026;-78
2023/02/03 03:01:47;;;;;;;2.10;1.30;;;;;;;;;;4992668;28;20031;-78
2023/02/03 03:04:18;;;;;;;3.05;1.25;;;5.90;80.30;;;;;;4992002;28;20495;-78
2023/02/03 03:06:49;;;;;;;1.27;1.17;;;6.00;80.10;;;;;;4992509;28;20109;-78
2023/02/03 03:09:20;;;;;;;1.75;1.50;;;6.00;80.10;;;;;;4992782;28;20491;-78
2023/02/03 03:11:55;;;;;;;7.20;1.48;;;6.00;79.40;;;;;;4992468;28;20069;-78
2023/02/03 03:14:23;;;;;;;11.77;1.65;;;5.90;79.20;;;;;;4992414;28;20516;-78
2023/02/03 03:16:56;;;;;;;3.63;1.00;;;6.00;78.60;;;;;;4992475;28;20035;-78
2023/02/03 03:19:25;;;;;;;2.63;1.15;;;5.90;92.00;;;;;;4990511;28;20029;-78
2023/02/03 03:21:56;;;;;;;5.65;1.10;;;5.80;84.40;;;;;;4991736;28;20043;-78
2023/02/03 03:24:29;;;;;;;4.40;1.90;;;5.70;77.90;;;;;;4991985;28;20033;-78
2023/02/03 03:27:01;;;;;;;1.40;1.30;;;6.00;86.10;;;;;;4992031;28;20034;-78
2023/02/03 03:29:34;;;;;;;2.95;2.63;;;6.00;77.60;;;;;;4992220;28;20406;-78
2023/02/03 03:32:00;;;;;;;4.38;2.17;;;;;;;;;;4991879;28;20023;-78
2023/02/03 03:34:26;;;;;;;1.23;1.10;;;;;;;;;;4992066;28;20037;-78
2023/02/03 03:37:27;;;;;;;2.00;0.98;;;6.00;77.20;;;;;;4991901;28;20030;-78
2023/02/03 03:39:56;;;;;;;2.53;0.95;;;5.90;92.80;;;;;;4989846;28;20037;-78
2023/02/03 03:42:47;;;;;;;1.65;1.10;;;6.00;77.10;;;;;;4991967;28;20594;-78
2023/02/03 03:45:25;;;;;;;4.70;0.98;;;6.00;77.00;;;;;;4991722;28;20105;-78
2023/02/03 03:47:51;;;;;;;3.75;0.90;;;;;;;;;;5006546;28;20419;-78
2023/02/03 03:50:31;;;;;;;0.82;0.70;;;6.00;77.10;;;;;;4992152;28;20026;-79
2023/02/03 03:53:00;;;;;;;1.33;0.90;;;6.00;76.90;;;;;;4991550;28;20030;-78
2023/02/03 03:55:27;;;;;;;1.35;1.05;;;;;;;;;;4991634;28;20486;-78
2023/02/03 03:57:56;;;;;;;0.50;0.50;;;;;;;;;;4991895;28;20031;-78
2023/02/03 04:00:24;;;;;;;1.13;1.00;;;6.00;89.30;;;;;;4991397;28;20105;-79
2023/02/03 04:02:54;;;;;;;0.98;0.75;;;5.90;81.90;;;;;;4991578;28;20626;-78
2023/02/03 04:05:21;;;;;;;11.77;0.93;;;6.60;93.00;;;;;;4991589;28;20022;-79
2023/02/03 04:07:47;;;;;;;;;;;6.00;77.60;;;;;;4990359;28;20037;-79
2023/02/03 04:10:34;;;;;;;3.03;1.10;;;6.00;77.60;;;;;;4991264;28;19906;-78
2023/02/03 04:13:00;;;;;;;;;;;;;;;;;;4991722;28;20030;-78
2023/02/03 04:15:27;;;;;;;2.58;1.13;;;;;;;;;;4991194;28;19936;-78
2023/02/03 04:17:53;;;;;;;6.95;0.90;;;6.00;90.10;;;;;;4991412;28;20035;-78
2023/02/03 04:20:20;;;;;;;3.67;1.33;;;6.20;93.20;;;;;;4991050;28;20688;-78
2023/02/03 04:22:46;;;;;;;11.10;1.55;;;6.00;79.10;;;;;;4991098;28;20026;-78
2023/02/03 04:25:11;;;;;;;1.00;0.90;;;5.90;88.00;;;;;;5005759;28;20057;-78
2023/02/03 04:27:37;;;;;;;1.95;1.65;;;;;;;;;;4991274;28;20531;-78
2023/02/03 04:30:04;;;;;;;1.45;1.27;;;6.20;93.30;;;;;;5006321;28;20507;-78
2023/02/03 04:32:29;;;;;;;8.90;2.90;;;5.80;93.30;;;;;;4991278;28;20061;-78
2023/02/03 04:34:56;;;;;;;8.60;2.85;;;5.80;81.30;;;;;;4991323;28;20022;-78
2023/02/03 04:37:22;;;;;;;3.63;1.98;;;;;;;;;;4990834;28;20046;-78
2023/02/03 04:39:51;;;;;;;1.92;1.23;;;5.90;78.30;;;;;;5005685;28;20037;-78
2023/02/03 04:42:17;;;;;;;2.20;1.95;;;;;;;;;;4990583;28;20125;-78
2023/02/03 04:44:43;;;;;;;2.10;1.23;;;5.90;93.10;;;;;;4990680;28;20557;-78
2023/02/03 04:47:09;;;;;;;5.15;1.08;;;;;;;;;;4990715;28;20047;-78
2023/02/03 04:49:35;;;;;;;1.60;1.00;;;;;;;;;;4990585;28;20026;-78
2023/02/03 04:52:01;;;;;;;0.80;0.70;;;6.00;77.60;;;;;;5005394;28;20530;-78
2023/02/03 04:54:27;;;;;;;1.23;0.90;;;;;;;;;;4990789;28;20130;-78
2023/02/03 04:56:53;;;;;;;6.05;1.15;;;;;;;;;;4990185;28;20591;-78
2023/02/03 04:59:19;;;;;;;2.22;1.00;;;;;;;;;;4990836;28;20026;-78
2023/02/03 05:01:45;;;;;;;1.75;1.58;;;;;;;;;;4990549;28;20026;-78
2023/02/03 05:04:11;;;;;;;1.73;1.20;;;;;;;;;;4990602;28;20165;-78
2023/02/03 05:06:37;;;;;;;9.07;2.08;;;;;;;;;;4990268;28;20049;-78
2023/02/03 05:09:03;;;;;;;6.40;1.25;;;6.00;86.30;;;;;;4990282;28;20035;-78
2023/02/03 05:11:29;;;;;;;2.80;1.20;;;;;;;;;;4990269;28;20511;-78
2023/02/03 05:13:54;;;;;;;3.55;1.30;;;6.10;84.30;;;;;;5005046;28;20022;-79
2023/02/03 05:16:21;;;;;;;1.00;0.90;;;;;;;;;;4989827;28;20041;-78
2023/02/03 05:18:46;;;;;;;0.90;0.90;;;6.20;78.00;;;;;;4990378;28;20396;-78
2023/02/03 05:21:12;;;;;;;1.30;1.20;;;;;;;;;;4989388;28;20054;-78
2023/02/03 05:23:38;;;;;;;1.23;1.00;;;;;;;;;;4990047;28;20391;-78
2023/02/03 05:26:04;;;;;;;6.53;1.25;;;5.80;82.20;;;;;;4989231;28;20037;-78
2023/02/03 05:28:30;;;;;;;2.45;1.45;;;;;;;;;;4989598;28;20097;-78
2023/02/03 05:31:00;;;;;;;2.30;1.95;;;5.90;78.70;;;;;;5004844;28;20069;-78
2023/02/03 05:33:27;;;;;;;1.60;1.50;;;;;;;;;;4989942;28;20038;-79
2023/02/03 05:35:52;;;;;;;2.00;1.45;;;6.50;91.10;;;;;;4989455;28;20046;-78
2023/02/03 05:38:18;;;;;;;6.95;1.20;;;;;;;;;;4989155;28;20041;-79
2023/02/03 05:43:32;;;;;;;2.63;1.30;;;;;;;;;;4989898;28;20093;-78
2023/02/03 05:46:05;;;;;;;6.38;2.15;;;5.90;79.40;;;;;;4989827;28;20022;-78
2023/02/03 05:48:31;;;;;;;1.60;1.50;;;;;;;;;;4989791;28;20035;-78
2023/02/03 05:50:58;;;;;;;4.22;1.30;;;5.90;90.20;;;;;;4989354;28;20037;-78
2023/02/03 05:53:24;;;;;;;6.47;1.55;;;;;;;;;;4989495;28;20034;-78
2023/02/03 05:55:50;;;;;;;2.05;1.30;;;;;;;;;;4989325;28;20030;-78
2023/02/03 05:58:16;;;;;;;1.88;1.52;;;;;;;;;;4989243;28;20036;-78
2023/02/03 06:00:42;;;;;;;1.45;1.30;;;;;;;;;;4989481;28;20442;-78
2023/02/03 06:03:08;;;;;;;3.30;1.75;;;;;;;;;;4989249;28;20026;-78
2023/02/03 06:05:39;;;;;;;2.35;1.77;;;5.80;80.20;;;;;;4988176;28;20030;-78
2023/02/03 06:08:08;;;;;;;2.75;0.98;;;6.10;94.40;;;;;;4988846;28;20407;-78
2023/02/03 06:10:34;;;;;;;7.75;1.60;;;5.90;89.40;;;;;;4988680;28;20030;-78
2023/02/03 06:13:07;;;;;;;4.18;2.55;;;;;;;;;;4987860;28;20030;-78
2023/02/03 06:15:33;;;;;;;5.10;1.38;;;5.80;86.70;;;;;;4985258;28;20030;-78
2023/02/03 06:17:59;;;;;;;2.72;1.45;;;;;;;;;;4987472;28;20399;-78
2023/02/03 06:20:25;;;;;;;2.50;1.42;;;;;;;;;;4991412;28;20065;-79
2023/02/03 06:22:51;;;;;;;2.88;1.58;;;;;;;;;;4990583;28;20037;-78
2023/02/03 06:25:17;;;;;;;2.55;1.48;;;;;;;;;;4991144;28;20037;-78
2023/02/03 06:27:43;;;;;;;1.33;1.10;;;5.80;93.80;;;;;;4991058;28;20033;-78
2023/02/03 06:30:10;;;;;;;4.22;1.30;;;5.80;81.50;;;;;;4990749;28;20022;-78
2023/02/03 06:32:36;;;;;;;3.05;1.70;;;;;;;;;;4988346;28;20086;-78
2023/02/03 06:35:02;;;;;;;2.33;1.80;;;;;;;;;;4990047;28;20727;-78
2023/02/03 06:37:28;;;;;;;4.40;1.65;;;;;;;;;;4988077;28;20113;-78
2023/02/03 06:39:54;;;;;;;2.40;2.03;;;;;;;;;;4990666;28;20073;-78
2023/02/03 06:42:20;;;;;;;3.22;2.15;;;;;;;;;;4990885;28;20026;-79
2023/02/03 06:44:45;;;;;;;3.60;1.55;;;5.80;94.60;;;;;;4991016;28;20018;-79
2023/02/03 06:47:11;;;;;;;0.93;0.90;;;;;;;;;;4987825;28;20026;-78
2023/02/03 06:49:37;;;;;;;4.65;1.65;;;;;;;;;;4990142;28;20034;-75
2023/02/03 06:52:03;;;;;;;1.20;1.10;;;6.00;86.30;;;;;;4986064;28;20034;-78
2023/02/03 06:54:29;;;;;;;1.67;1.20;;;5.80;94.50;;;;;;4989025;28;20026;-77
2023/02/03 06:56:55;;;;;;;2.35;1.75;;;;;;;;;;4991439;28;20038;-76
2023/02/03 06:59:21;;;;;;;2.35;1.65;;;;;;;;;;4991705;28;20033;-77
2023/02/03 07:01:47;;;;;;;5.35;1.45;;;;;;;;;;4991537;28;20041;-77
2023/02/03 07:04:13;;;;;;;4.32;1.40;;;6.50;94.40;;;;;;4990889;28;20022;-76
2023/02/03 07:06:39;;;;;;;2.47;1.85;;;;;;;;;;4990877;28;20018;-76
2023/02/03 07:09:05;;;;;;;3.40;2.08;;;6.20;94.50;;;;;;4991433;28;20029;-76
2023/02/03 07:11:31;;;;;;;9.77;1.80;;;;;;;;;;4991389;28;20034;-76
2023/02/03 07:13:57;;;;;;;1.10;1.10;;;5.80;86.90;;;;;;4990796;28;20053;-77
2023/02/03 07:16:23;;;;;;;1.60;1.45;;;;;;;;;;4990991;28;20062;-76
2023/02/03 07:18:49;;;;;;;3.92;1.23;;;6.00;90.80;;;;;;4990766;28;20105;-77
2023/02/03 07:21:15;;;;;;;2.15;1.52;;;6.10;94.30;;;;;;4978077;28;20145;-79
2023/02/03 07:23:41;;;;;;;1.63;1.10;;;;;;;;;;4981675;28;20026;-77
2023/02/03 07:26:08;;;;;;;4.03;1.25;;;;;;;;;;4988990;28;20478;-74
2023/02/03 07:28:35;;;;;;;1.40;1.30;;;6.20;94.20;;;;;;4990805;28;20026;-79
2023/02/03 07:31:02;;;;;;;1.15;1.00;;;;;;;;;;5013420;28;20026;-77
2023/02/03 07:33:28;;;;;;;1.75;1.20;;;;;;;;;;4980504;28;20454;-77
2023/02/03 07:35:55;;;;;;;7.43;1.50;;;;;;;;;;4987814;28;20440;-80
2023/02/03 07:38:21;;;;;;;4.57;1.27;;;;;;;;;;4989772;28;20048;-81
2023/02/03 07:40:47;;;;;;;2.63;1.52;;;;;;;;;;4984841;28;20570;-79
2023/02/03 07:43:14;;;;;;;3.58;1.70;;;6.40;94.10;;;;;;4989852;28;20077;-77
2023/02/03 07:45:40;;;;;;;2.58;2.38;;;;;;;;;;5020969;28;20030;-74
2023/02/03 07:48:05;;;;;;;1.00;1.00;;;6.30;83.20;;;;;;4991151;28;20036;-75
2023/02/03 07:50:32;;;;;;;3.22;2.03;;;;;;;;;;4983768;28;20038;-75
2023/02/03 07:52:58;;;;;;;4.68;1.85;;;;;;;;;;4988717;28;20105;-75
2023/02/03 07:55:24;;;;;;;1.55;1.30;;;6.40;91.50;;;;;;4989832;28;20576;-78
2023/02/03 07:57:51;;;;;;;2.83;1.55;;;6.70;88.70;;;;;;4996801;28;20127;-75
2023/02/03 08:00:17;;;;;;;8.05;2.15;;;6.70;90.20;;;;;;4988215;28;20517;-74
2023/02/03 08:02:43;;;;;;;1.40;1.27;;;6.70;93.90;;;;;;4991343;28;20049;-73
2023/02/03 08:05:10;;;;;;;7.25;1.40;;;6.80;79.80;;;;;;4989580;28;20018;-75
2023/02/03 08:07:36;;;;;;;9.63;3.13;;;;;;;;;;5000675;28;20554;-74
2023/02/03 08:10:03;;;;;;;2.55;1.55;;;7.10;78.20;;;;;;4987883;28;20057;-82
2023/02/03 08:12:28;;;;;;;4.22;2.00;;;7.20;85.40;;;;;;5002840;28;20034;-76
2023/02/03 08:14:54;;;;;;;3.97;2.05;;;;;;;;;;5000174;28;20022;-76
2023/02/03 08:17:21;;;;;;;2.92;2.05;;;;;;;;;;5004347;28;20722;-76
2023/02/03 08:19:47;;;;;;;4.45;1.45;;;;;;;;;;4997210;28;20026;-75
2023/02/03 08:22:15;;;;;;;4.07;2.20;;;9.40;73.70;;;;;;4996454;28;20100;-76
2023/02/03 08:24:44;;;;;;;3.08;2.10;;;9.90;69.40;;;;;;4999712;28;20446;-76
2023/02/03 08:27:11;;;;;;;4.30;1.48;;;;;;;;;;4994272;28;20065;-76
2023/02/03 08:29:37;;;;;;;8.23;2.55;;;;;;;;;;4994168;28;20108;-76
2023/02/03 08:32:03;;;;;;;2.65;2.17;;;;;;;;;;4986262;28;20500;-76
2023/02/03 08:34:29;;;;;;;1.80;1.23;;;;;;;;;;4989426;28;20030;-75
2023/02/03 08:36:55;;;;;;;3.05;2.00;;;;;;;;;;4987360;28;20084;-77
2023/02/03 08:39:21;;;;;;;1.90;1.70;;;;;;;;;;4985985;28;20399;-76
2023/02/03 08:41:47;;;;;;;1.63;1.52;;;;;;;;;;4986321;28;20775;-75
2023/02/03 08:44:13;;;;;;;3.47;1.40;;;;;;;;;;4990823;28;20077;-75
2023/02/03 08:46:42;;;;;;;4.82;1.75;;;;;;;;;;4990657;28;20037;-75
2023/02/03 08:49:09;;;;;;;3.58;1.50;;;8.90;70.40;;;;;;5000734;28;20588;-76
2023/02/03 08:51:35;;;;;;;3.15;1.60;;;;;;;;;;4986252;28;20522;-84
2023/02/03 08:54:01;;;;;;;2.75;1.75;;;;;;;;;;5002254;28;20022;-82
2023/02/03 08:56:27;;;;;;;6.18;1.45;;;;;;;;;;5004931;28;20120;-84
2023/02/03 08:58:54;;;;;;;2.80;1.85;;;9.80;67.10;;;;;;4992312;28;20030;-89
2023/02/03 09:01:20;;;;;;;1.25;1.15;;;;;;;;;;5004561;28;20026;-83
2023/02/03 09:03:46;;;;;;;2.13;1.98;;;;;;;;;;4998274;28;20022;-76
2023/02/03 09:06:15;;;;;;;10.70;2.17;;;;;;;;;;4996364;28;20042;-77
2023/02/03 09:08:41;;;;;;;3.78;2.20;;;;;;;;;;4997621;28;20451;-75
2023/02/03 09:11:10;;;;;;;28.48;7.40;;;11.20;68.60;;;;;;4985636;28;20097;-75
2023/02/03 09:13:37;;;;;;;3.47;2.85;;;11.70;60.70;;;;;;5005635;28;20034;-76
2023/02/03 09:16:07;;;;;;;20.42;6.28;;;12.20;59.80;;;;;;4997538;28;20491;-77
2023/02/03 09:18:32;;;;;;;31.15;10.88;;;13.20;62.60;;;;;;4995563;28;20456;-75
2023/02/03 09:21:06;;;;;;;7.38;3.17;;;;;;;;;;4985309;28;20061;-74
2023/02/03 09:23:32;;;;;;;12.85;5.80;;;;;;;;;;4998104;28;20418;-79
2023/02/03 09:26:05;;;;;;;9.20;6.68;;;18.00;47.70;;;;;;5003588;28;20026;-76
2023/02/03 09:28:32;;;;;;;6.00;4.32;;;;;;;;;;4987530;28;20120;-77
2023/02/03 09:31:05;;;;;;;2.38;2.17;;;23.00;52.60;;;;;;4986103;28;20026;-77
2023/02/03 09:33:31;;;;;;;1.75;1.60;;;25.60;44.20;;;;;;5019677;28;20861;-79
2023/02/03 09:35:57;;;;;;;6.63;2.15;;;;;;;;;;4996461;28;20034;-77
2023/02/03 09:38:24;;;;;;;4.10;1.75;;;29.00;34.30;;;;;;4995329;28;20081;-75
2023/02/03 09:40:55;;;;;;;2.30;0.90;;;27.00;33.20;;;;;;4979747;28;20498;-77
2023/02/03 09:43:38;;;;;;;2.17;1.60;;;25.50;34.90;;;;;;4995973;28;20109;-76
2023/02/03 09:46:15;;;;;;;2.95;1.65;;;28.00;33.30;;;;;;4997314;28;20015;-75
2023/02/03 09:48:46;;;;;;;2.28;1.40;;;28.30;33.40;;;;;;4996322;28;20060;-78
2023/02/03 09:51:50;;;;;;;1.75;0.85;;;26.50;31.10;;;;;;4983421;28;20149;-78
2023/02/03 09:54:20;;;;;;;4.07;1.15;;;22.80;35.80;;;;;;4998054;28;20221;-80
2023/02/03 09:56:51;;;;;;;1.33;1.05;;;21.10;37.00;;;;;;4998296;28;20034;-80
2023/02/03 09:59:17;;;;;;;1.10;0.70;;;;;;;;;;4992904;28;20023;-75
2023/02/03 10:02:08;;;;;;;4.32;1.50;;;19.30;39.10;;;;;;4983220;28;20037;-75
2023/02/03 10:04:55;;;;;;;1.08;0.98;;;18.50;40.10;;;;;;4999747;28;20033;-77
2023/02/03 10:07:32;;;;;;;1.90;1.13;;;23.50;35.70;;;;;;4996443;28;20058;-76
2023/02/03 10:10:17;;;;;;;1.52;1.00;;;21.70;46.70;;;;;;4988265;28;20671;-76
2023/02/03 10:12:46;;;;;;;1.50;1.30;;;25.50;39.90;;;;;;4998695;28;20068;-76
2023/02/03 10:15:33;;;;;;;0.98;0.80;;;24.70;31.80;;;;;;5030016;28;20030;-76
2023/02/03 10:18:01;;;;;;;;;;;25.10;32.50;;;;;;4996142;28;20218;-74
2023/02/03 10:20:37;;;;;;;2.25;1.25;;;29.20;33.80;;;;;;4988077;28;19917;-77
2023/02/03 10:23:11;;;;;;;5.50;0.90;;;27.60;29.80;;;;;;4995685;28;20415;-77
2023/02/03 10:25:43;;;;;;;0.90;0.50;;;25.40;30.60;;;;;;5002303;28;20045;-75
2023/02/03 10:28:19;;;;;;;1.83;0.93;;;22.80;31.60;;;;;;4988207;28;20030;-73
2023/02/03 10:30:58;;;;;;;0.73;0.60;;;21.60;33.60;;;;;;4978329;28;20041;-75
2023/02/03 10:33:29;;;;;;;1.67;0.60;;;20.20;47.70;;;;;;4980934;28;20029;-86
2023/02/03 10:36:31;;;;;;;1.55;0.88;;;19.40;35.80;;;;;;4988841;28;20062;-83
2023/02/03 10:39:18;;;;;;;1.55;0.85;;;18.30;36.70;;;;;;4992619;28;20046;-79
2023/02/03 10:41:44;;;;;;;1.75;1.65;;;19.00;44.40;;;;;;4979056;28;20030;-79
2023/02/03 10:44:13;;;;;;;3.15;1.00;;;22.40;34.20;;;;;;4985365;28;21918;-79
2023/02/03 10:46:42;;;;;;;5.28;2.28;;;25.10;32.90;;;;;;4988546;28;20034;-80
2023/02/03 10:49:09;;;;;;;1.83;0.80;;;25.40;30.70;;;;;;4986342;28;20113;-73
2023/02/03 10:51:44;;;;;;;;;;;25.40;31.20;;;;;;4982548;28;20500;-72
2023/02/03 10:54:28;;;;;;;1.40;1.30;;;25.30;31.70;;;;;;4998512;28;20000;-77
2023/02/03 10:57:05;;;;;;;1.80;0.93;;;27.60;30.00;;;;;;5001383;28;20030;-81
2023/02/03 10:59:34;;;;;;;;;;;27.60;30.40;;;;;;4983604;28;20027;-75
2023/02/03 11:02:20;;;;;;;1.42;0.55;;;27.50;29.40;;;;;;4988952;28;20468;-77
2023/02/03 11:04:46;;;;;;;1.25;0.40;;;;;;;;;;5000379;28;20054;-76
2023/02/03 11:07:24;;;;;;;1.60;0.95;;;23.70;31.20;;;;;;4992041;28;20023;-76
2023/02/03 11:09:50;;;;;;;4.65;1.23;;;;;;;;;;4977944;28;20030;-76
2023/02/03 11:12:18;;;;;;;1.23;0.68;;;25.70;29.80;;;;;;4989887;28;20694;-76
2023/02/03 11:14:49;;;;;;;2.15;1.42;;;27.20;34.00;;;;;;5027617;28;20085;-76
2023/02/03 11:17:18;;;;;;;1.52;1.15;;;29.30;28.40;;;;;;4990443;28;20103;-75
2023/02/03 11:19:46;;;;;;;2.83;0.95;;;31.50;28.00;;;;;;4984713;28;20075;-74
2023/02/03 11:22:24;;;;;;;2.45;1.65;;;31.90;26.80;;;;;;5006045;28;20137;-74
2023/02/03 11:24:50;;;;;;;1.73;0.88;;;32.60;29.60;;;;;;4993102;28;20018;-74
2023/02/03 11:27:18;;;;;;;1.50;0.83;;;33.20;26.10;;;;;;4992727;28;20033;-74
2023/02/03 11:29:48;;;;;;;1.85;0.50;;;30.30;23.80;;;;;;4990038;28;20451;-74
2023/02/03 11:32:14;;;;;;;0.88;0.30;;;;;;;;;;4997731;28;20037;-74
2023/02/03 11:35:02;;;;;;;0.73;0.40;;;30.40;26.60;;;;;;5004078;28;20119;-73
2023/02/03 11:37:38;;;;;;;1.30;0.22;;;27.00;27.90;;;;;;5004912;28;20108;-74
2023/02/03 11:40:07;;;;;;;1.95;0.60;;;24.30;29.30;;;;;;4983940;28;20105;-74
2023/02/03 11:42:37;;;;;;;2.15;0.65;;;22.20;34.90;;;;;;4988868;28;20030;-73
2023/02/03 11:45:24;;;;;;;0.70;0.70;;;24.60;31.20;;;;;;4989680;28;20022;-73
2023/02/03 11:47:53;;;;;;;;;;;24.00;29.80;;;;;;4990012;28;20471;-73
2023/02/03 11:50:27;;;;;;;1.67;0.70;;;27.90;39.20;;;;;;4984826;28;19914;-73
2023/02/03 11:53:12;;;;;;;1.75;0.70;;;28.80;38.10;;;;;;4989924;28;20061;-73
2023/02/03 11:55:38;;;;;;;1.38;0.70;;;;;;;;;;4990133;28;20042;-73
2023/02/03 11:58:05;;;;;;;1.08;0.40;;;;;;;;;;4989147;28;20022;-74
2023/02/03 12:01:07;;;;;;;0.25;0.25;;;27.00;26.90;;;;;;4980564;28;20026;-73
2023/02/03 12:03:45;;;;;;;0.30;0.25;;;24.00;35.00;;;;;;4991163;28;20030;-73
2023/02/03 12:06:11;;;;;;;2.05;0.45;;;;;;;;;;4990677;28;20690;-73
2023/02/03 12:09:16;;;;;;;0.50;0.22;;;20.30;33.60;;;;;;4988090;28;20023;-73
2023/02/03 12:12:12;;;;;;;2.90;0.40;;;18.30;40.20;;;;;;4979874;28;20111;-74
2023/02/03 12:15:02;;;;;;;0.70;0.70;;;18.90;34.40;;;;;;4985148;28;20082;-81
2023/02/03 12:17:46;;;;;;;1.05;1.00;;;20.70;43.30;;;;;;4983133;28;20038;-77
2023/02/03 12:20:23;;;;;;;1.02;0.90;;;22.00;31.40;;;;;;4982141;28;20129;-78
2023/02/03 12:23:15;;;;;;;1.45;0.70;;;22.80;36.30;;;;;;4981324;28;20468;-82
2023/02/03 12:25:59;;;;;;;1.67;0.68;;;21.70;31.10;;;;;;4978190;28;20034;-76
2023/02/03 12:28:31;;;;;;;1.70;0.73;;;20.10;46.20;;;;;;4997758;28;20061;-76
2023/02/03 12:31:36;;;;;;;5.07;0.80;;;19.00;33.70;;;;;;4982692;28;20491;-79
2023/02/03 12:34:12;;;;;;;1.63;0.93;;;17.20;35.80;;;;;;4985646;28;20451;-76
2023/02/03 12:37:10;;;;;;;0.65;0.65;;;16.50;40.10;;;;;;4968251;28;20070;-77
2023/02/03 12:40:11;;;;;;;1.38;0.88;;;16.80;37.70;;;;;;4975009;28;20612;-79
2023/02/03 12:42:47;;;;;;;7.05;0.88;;;16.60;41.80;;;;;;4987639;28;20030;-83
2023/02/03 12:45:18;;;;;;;0.70;0.70;;;16.50;53.90;;;;;;4986269;28;20830;-86
2023/02/03 12:47:54;;;;;;;0.80;0.80;;;16.40;39.20;;;;;;4992979;28;20129;-75
2023/02/03 12:50:40;;;;;;;2.80;1.27;;;16.60;39.10;;;;;;4989962;28;20387;-75
2023/02/03 12:53:18;;;;;;;1.92;1.35;;;16.40;39.80;;;;;;4982045;28;20065;-73
2023/02/03 12:55:50;;;;;;;;;;;15.90;41.10;;;;;;4993811;28;20030;-74
2023/02/03 12:58:30;;;;;;;1.05;1.05;;;15.40;40.80;;;;;;4993123;28;19910;-75
2023/02/03 13:01:09;;;;;;;1.58;0.90;;;15.00;42.30;;;;;;4980814;28;20486;-84
2023/02/03 13:03:35;;;;;;;2.03;1.10;;;;;;;;;;4988964;28;20037;-76
2023/02/03 13:06:26;;;;;;;4.88;1.25;;;16.10;41.30;;;;;;4991690;28;20026;-77
2023/02/03 13:09:20;;;;;;;1.08;1.00;;;17.20;42.90;;;;;;4989294;28;20507;-72
2023/02/03 13:11:55;;;;;;;5.78;1.25;;;17.90;38.80;;;;;;4986107;28;20022;-72
2023/02/03 13:14:31;;;;;;;1.33;1.23;;;18.60;37.60;;;;;;4991054;28;20030;-77
2023/02/03 13:17:10;;;;;;;2.28;1.42;;;18.70;36.70;;;;;;4993917;28;20089;-74
2023/02/03 13:19:48;;;;;;;0.70;0.70;;;17.70;46.50;;;;;;4987499;28;20474;-75
2023/02/03 13:22:16;;;;;;;0.60;0.60;;;17.30;53.70;;;;;;4988015;28;20077;-76
2023/02/03 13:24:55;;;;;;;1.98;0.88;;;16.10;39.40;;;;;;4992360;28;20049;-84
2023/02/03 13:27:56;;;;;;;0.90;0.90;;;15.60;50.50;;;;;;4996339;28;20025;-83
2023/02/03 13:30:43;;;;;;;2.67;1.10;;;15.20;50.30;;;;;;4980981;28;20839;-75
2023/02/03 13:33:47;;;;;;;3.22;1.00;;;15.60;41.20;;;;;;4989776;28;20030;-74
2023/02/03 13:36:38;;;;;;;1.00;0.95;;;15.90;40.80;;;;;;4989462;28;20046;-75
2023/02/03 13:39:04;;;;;;;0.90;0.90;;;;;;;;;;4984746;28;20027;-78
2023/02/03 13:41:48;;;;;;;1.40;0.90;;;16.20;40.30;;;;;;4975247;28;20031;-78
2023/02/03 13:44:18;;;;;;;1.23;1.02;;;16.30;40.20;;;;;;4986427;28;20230;-76
2023/02/03 13:46:47;;;;;;;6.13;1.13;;;16.30;41.10;;;;;;4983880;28;20042;-76
2023/02/03 13:49:33;;;;;;;1.58;1.17;;;16.70;41.00;;;;;;4983972;28;20027;-76
2023/02/03 13:51:59;;;;;;;0.80;0.77;;;16.40;57.10;;;;;;4980341;28;20030;-77
2023/02/03 13:54:29;;;;;;;1.35;0.85;;;16.00;41.50;;;;;;4985236;28;20100;-72
2023/02/03 13:57:04;;;;;;;2.75;0.80;;;15.80;42.50;;;;;;4984197;28;20637;-73